Roswell, NM (88201)

12:50 PM MDT on March 26, 2017 (GMT -0600)
ME5063 | | Change Station
Active Advisory: Fire Weather Warning

Elev 4024 ft 33.82 °N, 104.59 °W | Updated 34 minutes ago

Clear
Clear
68.0 °F
Feels Like 68.0 °F
N
22.0
Wind Variable Wind from NW

Today
High -- | Low -- °F
--% Chance of Precip.
Yesterday
High -- | Low -- °F
Precip. -- in
Pressure 29.73 in
Visibility 10.0 miles
Clouds Clear
Dew Point 24 °F
Humidity 19%
Rainfall 0.00 in
Snow Depth Not available.
6:52 AM 7:13 PM
Waning Crescent, 2% visible
METAR KROW 261751Z 27011KT 10SM CLR 22/M08 A2988 RMK AO2 SLP066 T02221083 10228 20122 $
Pressure 29.73 in
Visibility 10.0 miles
Clouds Clear
Dew Point 24 °F
Humidity 19%
Rainfall 0.00 in
Snow Depth Not available.
6:52 AM 7:13 PM
Waning Crescent, 2% visible
METAR KROW 261751Z 27011KT 10SM CLR 22/M08 A2988 RMK AO2 SLP066 T02221083 10228 20122 $

Get Your Daily Forecast Email!

Thanks for signing up!

Be on the lookout for a verification email in your inbox.

You'll start receiving severe weather alerts in your inbox..

×

10-Day Weather Forecast

Almanac

Astronomy

Mar. 26, 2017 Rise Set
Actual Time
Civil Twilight
Nautical Twilight
Astronomical Twilight
Moon
Length of Visible Light
Length of Day
Tomorrow will be .
, % of the Moon is Illuminated

Today's Extremes

State Highs State Lows

Community

WunderPhotos

Upload Photos

1,962,540 photos uploaded!

WunderBlog® & News

Nearby

Air Quality

  Air Quality AQ Index Pollutant
Not available.

Snow Depth

Station Depth Elevation

Earthquake Activity

City Distance Mag. Time & Date
Minimum magnitude displayed is 2.5.

Earthquake Activity

City Distance Mag. Time & Date
Minimum magnitude displayed is 2.5.

Coastal Water Temperatures

Place Temperature

Stations

Nearby Weather Stations

Station Location Temp. Windchill Dew Point Humidity Wind Precip. Elev Updated Type
                   

Watches & Warnings

Fire Weather Warning
Issued: 3:51 AM MDT Mar. 26, 2017 – National Weather Service

... Red flag warning in effect from 11 am CDT /10 am MDT/ this
morning to 10 PM CDT /9 PM MDT/ this evening for relative
humidity of 15% or less, 20' winds of 20 mph or more, and high to
extreme fire danger...

* humidity... 5 to 15%.

* Wind... southwest to west 20 to 25 mph increasing to 25 to 35 mph
with gusts to 45 mph in the afternoon.

* Impacts... any fires that develop will likely spread rapidly.
Outdoor burning is not recommended.

Precautionary/preparedness actions...

A red flag warning means that critical fire weather conditions
are either occurring now or will shortly. A combination of strong
winds, low relative humidity and warm temperatures can contribute
to dangerous fire behavior.